Weather reports worldwide

Advertisment
Monte Cimone, Italy (16134): temperature & dewpoint: 16.07.2019 04:00:00 - 22.07.2019 04:00:00 (CEST)Monte Cimone, Italy (16134): wind speed: 16.07.2019 04:00:00 - 22.07.2019 04:00:00 (CEST)Monte Cimone, Italy (16134): wind direction: 16.07.2019 04:00:00 - 22.07.2019 04:00:00 (CEST)Monte Cimone, Italy (16134): visibility: 16.07.2019 04:00:00 - 22.07.2019 04:00:00 (CEST)Monte Cimone, Italy (16134): sunshine duration: 16.07.2019 04:00:00 - 22.07.2019 04:00:00 (CEST)
Date & Time tt [°C] td [°C] ff [km/h] ff [kn] dd vv [km] sd [min]
22.07.2019 04:00:00 14,6 3,4 5 3 NNW 50 -
22.07.2019 03:00:00 14,8 3,9 5 3 NNW 50 -
22.07.2019 02:00:00 14,8 3,9 5 3 NNW 50 -
22.07.2019 01:00:00 14,8 4,5 8 4 NNW 50 -
22.07.2019 00:00:00 15,0 6,8 5 3 WSW 50 -
21.07.2019 23:00:00 15,2 7,0 11 6 WNW 50 -
21.07.2019 22:00:00 15,6 7,9 18 10 NW 50 -
21.07.2019 21:00:00 16,2 11,2 16 9 WNW 50 -
21.07.2019 20:00:00 17,0 11,1 5 3 N 50 30
21.07.2019 19:00:00 17,6 10,7 5 3 NNW 50 60
21.07.2019 18:00:00 18,8 10,9 5 3 NW 50 60
21.07.2019 17:00:00 18,8 10,1 5 3 NW 50 60
21.07.2019 16:00:00 18,6 11,2 5 3 NE 50 60
21.07.2019 15:00:00 18,0 10,6 5 3 SW 50 60
21.07.2019 14:00:00 12,6 5,5 5 3 SE 50 60
21.07.2019 13:00:00 11,4 4,4 5 3 SW 50 60
21.07.2019 12:00:00 15,6 12,7 8 4 WSW 50 60
21.07.2019 11:00:00 14,6 7,9 15 8 SW 50 60
21.07.2019 10:00:00 14,0 5,1 11 6 SW 50 60
21.07.2019 09:00:00 13,4 4,8 29 16 WSW 40 60
21.07.2019 08:00:00 13,0 1,4 26 14 WSW 40 60
21.07.2019 07:00:00 12,4 2,8 26 14 WSW 40 -
21.07.2019 06:00:00 12,6 2,5 28 15 WSW 40 -
21.07.2019 05:00:00 13,0 1,7 22 12 WSW 40 -
21.07.2019 04:00:00 13,0 2,0 24 13 WSW 40 -
21.07.2019 03:00:00 13,0 2,0 26 14 WSW 40 -
21.07.2019 02:00:00 13,2 1,5 26 14 WSW 40 -
21.07.2019 01:00:00 13,2 1,8 26 14 SW 40 -
21.07.2019 00:00:00 13,6 2,2 21 11 SW 40 -
20.07.2019 23:00:00 14,2 2,1 22 12 SW 40 -
20.07.2019 22:00:00 14,6 2,2 18 10 SSW 40 -
20.07.2019 21:00:00 15,0 4,7 22 12 SSW 40 -
20.07.2019 20:00:00 16,0 9,9 9 5 SSW 40 6
20.07.2019 19:00:00 16,8 10,4 13 7 SSW 40 60
20.07.2019 18:00:00 17,2 10,1 9 5 WSW 30 60
20.07.2019 17:00:00 17,8 10,2 5 3 WSW 30 60
20.07.2019 16:00:00 18,0 10,1 8 4 WNW 30 60
20.07.2019 15:00:00 17,2 9,9 5 3 ESE 30 60
20.07.2019 14:00:00 16,2 9,6 5 3 SW 50 60
20.07.2019 13:00:00 15,8 9,2 5 3 SSW 50 60
20.07.2019 12:00:00 15,2 8,9 4 2 S 50 60
20.07.2019 11:00:00 14,4 7,2 4 2 SSW 50 60
20.07.2019 10:00:00 13,2 6,1 5 3 NNE 50 60
20.07.2019 09:00:00 12,4 6,2 11 6 W 30 60
20.07.2019 08:00:00 12,4 6,2 9 5 W 30 60
20.07.2019 07:00:00 12,2 1,2 11 6 W 30 24
20.07.2019 06:00:00 12,0 1,1 15 8 WSW 30 -
20.07.2019 05:00:00 12,0 1,0 13 7 WSW 30 -
20.07.2019 04:00:00 12,0 1,3 13 7 WSW 30 -
20.07.2019 03:00:00 12,2 1,8 15 8 WSW 30 -
20.07.2019 02:00:00 12,2 2,6 13 7 SW 30 -
20.07.2019 01:00:00 12,4 1,7 8 4 SW 30 -
20.07.2019 00:00:00 12,4 2,3 15 8 SSW 30 -
19.07.2019 23:00:00 12,6 3,0 15 8 SSW 30 -
19.07.2019 22:00:00 12,6 5,0 13 7 SSW 30 -
19.07.2019 21:00:00 13,0 7,0 13 7 SSW 20 -
19.07.2019 20:00:00 13,0 8,3 5 3 SSW 20 0
19.07.2019 19:00:00 13,0 9,4 0 0 N 20 0
19.07.2019 18:00:00 12,8 9,4 5 3 WSW 20 0
19.07.2019 17:00:00 12,2 8,5 15 8 W 10 0
19.07.2019 16:00:00 12,0 9,4 18 10 SSW 10 0
19.07.2019 15:00:00 12,0 10,4 24 13 SSW 0,2 0
19.07.2019 14:00:00 13,4 9,3 5 3 SSW 20 0
19.07.2019 13:00:00 13,4 9,3 9 5 S 20 0
19.07.2019 12:00:00 13,6 9,3 8 4 N 20 18
19.07.2019 11:00:00 13,6 8,9 0 0 N 30 60
19.07.2019 10:00:00 12,6 8,1 0 0 N 30 60
19.07.2019 09:00:00 11,8 6,5 4 2 S 40 60
19.07.2019 08:00:00 11,4 6,5 4 2 S 40 60
19.07.2019 07:00:00 10,4 5,6 0 0 N 40 0
19.07.2019 06:00:00 10,4 5,6 2 1 E 40 -
19.07.2019 05:00:00 10,6 6,7 5 3 ESE 40 -
19.07.2019 04:00:00 - - - - - - -
19.07.2019 03:00:00 - - - - - - -
19.07.2019 02:00:00 11,0 4,9 9 5 N 30 -
19.07.2019 01:00:00 11,0 4,5 8 4 N 30 -
19.07.2019 00:00:00 11,0 4,0 8 4 NW 30 -
18.07.2019 23:00:00 11,4 3,9 9 5 W 30 -
18.07.2019 22:00:00 11,8 6,1 13 7 SW 30 -
18.07.2019 21:00:00 12,0 8,5 5 3 SW 30 -
18.07.2019 20:00:00 13,0 9,1 4 2 S 30 0
18.07.2019 19:00:00 13,0 8,9 4 2 WNW 30 0
18.07.2019 18:00:00 13,0 9,1 5 3 WNW 30 0
18.07.2019 17:00:00 12,4 8,7 8 4 WSW 30 0
18.07.2019 16:00:00 13,2 9,5 9 5 SSW 30 0
18.07.2019 15:00:00 11,6 8,1 15 8 S - 0
18.07.2019 14:00:00 13,2 9,3 9 5 ESE - 0
18.07.2019 13:00:00 14,2 6,5 8 4 S 30 60
18.07.2019 12:00:00 13,4 6,3 4 2 S 30 48
18.07.2019 11:00:00 12,6 4,6 4 2 S 30 0
18.07.2019 10:00:00 12,4 2,8 4 2 SW 30 54
18.07.2019 09:00:00 11,4 4,2 5 3 SSW 20 60
18.07.2019 08:00:00 11,0 4,0 8 4 SSW 20 60
18.07.2019 07:00:00 10,8 4,5 9 5 S 20 0
18.07.2019 06:00:00 10,8 4,5 11 6 S 20 -
18.07.2019 05:00:00 11,0 4,5 0 0 N 30 -
18.07.2019 04:00:00 11,0 4,2 0 0 N 30 -
18.07.2019 03:00:00 11,0 3,5 9 5 SSW 30 -
18.07.2019 02:00:00 11,0 3,5 13 7 SSW 30 -
18.07.2019 01:00:00 11,0 4,7 11 6 SSW 30 -
18.07.2019 00:00:00 11,4 6,5 5 3 SSW 30 -
17.07.2019 23:00:00 11,6 6,7 8 4 SSW 30 -
17.07.2019 22:00:00 13,2 7,4 11 6 SW 30 -
17.07.2019 21:00:00 12,6 6,9 13 7 SSW 30 -
17.07.2019 20:00:00 13,0 7,0 9 5 SW 30 6
17.07.2019 19:00:00 13,4 6,3 9 5 WSW 30 42
17.07.2019 18:00:00 13,0 5,9 5 3 N 30 6
17.07.2019 17:00:00 13,4 5,6 4 2 N 30 0
17.07.2019 16:00:00 13,8 5,4 8 4 N 30 12
17.07.2019 15:00:00 14,0 4,6 5 3 N 30 18
17.07.2019 14:00:00 14,2 3,4 5 3 NNW 30 60
17.07.2019 13:00:00 13,8 2,7 5 3 W 30 60
17.07.2019 12:00:00 13,8 2,1 5 3 SW 30 60
17.07.2019 11:00:00 12,0 0,7 9 5 S 30 60
17.07.2019 10:00:00 10,6 -1,1 13 7 SSE 30 60
17.07.2019 09:00:00 9,8 -2,5 13 7 ESE 30 60
17.07.2019 08:00:00 9,4 -2,9 15 8 ESE 30 60
17.07.2019 07:00:00 9,2 -3,1 24 13 ESE 30 0
17.07.2019 06:00:00 9,0 -4,6 26 14 SE 30 -
17.07.2019 05:00:00 9,0 -3,2 29 16 ESE 30 -
17.07.2019 04:00:00 - - - - - - -
17.07.2019 03:00:00 - - - - - - -
17.07.2019 02:00:00 8,2 -3,9 41 22 E 30 -
17.07.2019 01:00:00 8,2 -4,0 39 21 E 30 -
17.07.2019 00:00:00 8,2 -3,3 37 20 E 30 -
16.07.2019 23:00:00 8,2 -1,1 41 22 ENE 30 -
16.07.2019 22:00:00 8,2 -0,3 26 14 ENE 30 -
16.07.2019 21:00:00 8,2 -1,9 26 14 NE 30 -
16.07.2019 20:00:00 9,2 1,1 16 9 NNE 30 24
16.07.2019 19:00:00 9,0 5,0 8 4 N 30 60
16.07.2019 18:00:00 9,0 4,8 9 5 N 30 60
16.07.2019 17:00:00 8,8 5,2 15 8 N 30 60
16.07.2019 16:00:00 8,6 4,0 22 12 NNE 30 60
16.07.2019 15:00:00 8,2 4,1 29 16 NE 30 60
16.07.2019 14:00:00 7,6 3,8 35 19 NE 30 60
16.07.2019 13:00:00 7,2 2,7 48 26 NE 30 60
16.07.2019 12:00:00 6,8 2,7 54 29 NE 30 60
16.07.2019 11:00:00 6,2 2,3 61 33 NE 30 60
16.07.2019 10:00:00 5,8 1,5 76 41 NE 30 60
16.07.2019 09:00:00 5,0 4,1 83 45 NNE - 0
16.07.2019 08:00:00 5,0 4,1 83 45 NNE - 0
16.07.2019 07:00:00 5,4 4,7 81 44 NNE - -
16.07.2019 06:00:00 5,4 4,7 68 37 NNE - -
16.07.2019 05:00:00 5,4 4,7 61 33 NNE - -
16.07.2019 04:00:00 - - - - - - -

tt = temperature
td = dewpoint
ff = wind speed
dd = wind direction
vv = visibility
sd = sunshine duration

Next stations